createdAt,value
2018-11-13T00:00:46.034Z,10.4
2018-11-13T00:01:46.030Z,10.38
2018-11-13T00:02:46.036Z,10.42
2018-11-13T00:03:45.788Z,10.48
2018-11-13T00:04:45.785Z,10.35
2018-11-13T00:05:46.087Z,10.35
2018-11-13T00:06:46.057Z,10.28
2018-11-13T00:07:46.101Z,10.31
2018-11-13T00:08:46.050Z,10.3
2018-11-13T00:09:45.799Z,10.3
2018-11-13T00:10:46.063Z,10.2
2018-11-13T00:11:46.064Z,10.3
2018-11-13T00:12:46.117Z,10.3
2018-11-13T00:13:46.071Z,10.28
2018-11-13T00:14:46.072Z,10.31
2018-11-13T00:15:45.821Z,10.33
2018-11-13T00:16:46.074Z,10.37
2018-11-13T00:17:45.589Z,10.26
2018-11-13T00:18:46.117Z,10.31
2018-11-13T00:19:46.092Z,10.33
2018-11-13T00:20:46.099Z,10.23
2018-11-13T00:21:46.090Z,10.31
2018-11-13T00:22:46.102Z,10.33
2018-11-13T00:23:45.573Z,10.31
2018-11-13T00:24:46.080Z,10.31
2018-11-13T00:25:46.078Z,10.34
2018-11-13T00:26:46.106Z,10.22
2018-11-13T00:27:46.711Z,10.25
2018-11-13T00:28:46.091Z,10.31
2018-11-13T00:29:46.095Z,10.23
2018-11-13T00:30:45.841Z,10.31
2018-11-13T00:31:46.110Z,10.35
2018-11-13T00:32:45.968Z,10.3
2018-11-13T00:33:46.123Z,10.17
2018-11-13T00:34:46.115Z,10.17
2018-11-13T00:35:45.601Z,10.26
2018-11-13T00:36:46.103Z,10.23
2018-11-13T00:37:46.155Z,10.25
2018-11-13T00:38:46.105Z,10.31
2018-11-13T00:39:46.138Z,10.31
2018-11-13T00:40:46.110Z,10.22
2018-11-13T00:41:46.117Z,10.12
2018-11-13T00:42:45.864Z,10.2
2018-11-13T00:43:45.617Z,10.19
2018-11-13T00:44:46.122Z,10.23
2018-11-13T00:45:46.852Z,10.19
2018-11-13T00:46:45.906Z,10.17
2018-11-13T00:47:46.148Z,10.1
2018-11-13T00:48:45.898Z,10.16
2018-11-13T00:49:46.161Z,10.1
2018-11-13T00:50:46.825Z,10.19
2018-11-13T00:51:45.900Z,10.07
2018-11-13T00:52:46.209Z,10.07
2018-11-13T00:53:45.906Z,10.1
2018-11-13T00:54:45.989Z,10.05
2018-11-13T00:55:46.171Z,10.12
2018-11-13T00:56:45.914Z,10.07
2018-11-13T00:57:46.476Z,10.12
2018-11-13T00:58:46.170Z,10.07
2018-11-13T00:59:46.172Z,10.09
2018-11-13T01:00:46.059Z,10.07
2018-11-13T01:01:45.978Z,10.13
2018-11-13T01:02:45.926Z,10.16
2018-11-13T01:03:46.185Z,10.09
2018-11-13T01:04:46.177Z,10.05
2018-11-13T01:05:45.721Z,10.05
2018-11-13T01:06:45.928Z,10.1
2018-11-13T01:07:46.282Z,10.09
2018-11-13T01:08:46.199Z,10.04
2018-11-13T01:09:46.192Z,10.12
2018-11-13T01:10:46.193Z,10.09
2018-11-13T01:11:46.364Z,10.02
2018-11-13T01:12:46.199Z,10.09
2018-11-13T01:13:45.945Z,10.01
2018-11-13T01:14:45.948Z,10.04
2018-11-13T01:15:46.221Z,10.01
2018-11-13T01:16:45.951Z,10.04
2018-11-13T01:17:46.222Z,10.04
2018-11-13T01:18:45.958Z,10.05
2018-11-13T01:19:45.966Z,9.94
2018-11-13T01:20:46.213Z,9.99
2018-11-13T01:21:46.215Z,9.99
2018-11-13T01:22:46.282Z,9.99
2018-11-13T01:23:46.285Z,9.91
2018-11-13T01:24:45.973Z,9.92
2018-11-13T01:25:46.224Z,9.91
2018-11-13T01:26:46.254Z,9.86
2018-11-13T01:27:46.233Z,9.92
2018-11-13T01:28:45.981Z,9.94
2018-11-13T01:29:46.236Z,9.94
2018-11-13T01:30:46.240Z,9.89
2018-11-13T01:31:45.987Z,9.92
2018-11-13T01:32:45.995Z,9.83
2018-11-13T01:33:45.971Z,9.91
2018-11-13T01:34:46.242Z,9.83
2018-11-13T01:35:46.231Z,9.87
2018-11-13T01:36:46.230Z,9.82
2018-11-13T01:37:46.095Z,9.74
2018-11-13T01:38:46.249Z,9.77
2018-11-13T01:39:46.257Z,9.74
2018-11-13T01:40:45.746Z,9.65
2018-11-13T01:41:46.157Z,9.73
2018-11-13T01:42:46.330Z,9.64
2018-11-13T01:43:46.001Z,9.68
2018-11-13T01:44:46.247Z,9.64
2018-11-13T01:45:46.257Z,9.61
2018-11-13T01:46:46.260Z,9.62
2018-11-13T01:47:46.270Z,9.65
2018-11-13T01:48:46.012Z,9.69
2018-11-13T01:49:46.014Z,9.69
2018-11-13T01:50:46.263Z,9.68
2018-11-13T01:51:46.288Z,9.68
2018-11-13T01:52:46.280Z,9.72
2018-11-13T01:53:46.266Z,9.69
2018-11-13T01:54:46.274Z,9.64
2018-11-13T01:55:46.268Z,9.65
2018-11-13T01:56:46.283Z,9.69
2018-11-13T01:57:46.337Z,9.66
2018-11-13T01:58:46.291Z,9.69
2018-11-13T01:59:46.289Z,9.74
2018-11-13T02:00:46.293Z,9.76
2018-11-13T02:01:46.290Z,9.74
2018-11-13T02:02:46.301Z,9.79
2018-11-13T02:03:46.289Z,9.77
2018-11-13T02:04:46.298Z,9.82
2018-11-13T02:05:46.299Z,9.79
2018-11-13T02:06:46.307Z,9.82
2018-11-13T02:07:46.306Z,9.8
2018-11-13T02:08:46.035Z,9.84
2018-11-13T02:09:46.285Z,9.82
2018-11-13T02:10:46.058Z,9.8
2018-11-13T02:11:46.307Z,9.77
2018-11-13T02:12:46.406Z,9.74
2018-11-13T02:13:46.312Z,9.72
2018-11-13T02:14:46.312Z,9.68
2018-11-13T02:15:46.323Z,9.69
2018-11-13T02:16:46.315Z,9.73
2018-11-13T02:17:46.332Z,9.64
2018-11-13T02:18:46.066Z,9.68
2018-11-13T02:19:46.323Z,9.54
2018-11-13T02:20:46.059Z,9.62
2018-11-13T02:21:46.319Z,9.72
2018-11-13T02:22:46.316Z,9.66
2018-11-13T02:23:46.313Z,9.72
2018-11-13T02:24:46.331Z,9.69
2018-11-13T02:25:46.092Z,9.64
2018-11-13T02:26:46.089Z,9.74
2018-11-13T02:27:45.881Z,9.73
2018-11-13T02:28:46.346Z,9.65
2018-11-13T02:29:46.338Z,9.74
2018-11-13T02:30:45.856Z,9.72
2018-11-13T02:31:46.347Z,9.72
2018-11-13T02:32:46.157Z,9.68
2018-11-13T02:33:46.097Z,9.69
2018-11-13T02:34:46.415Z,9.59
2018-11-13T02:35:46.599Z,9.65
2018-11-13T02:36:46.105Z,9.64
2018-11-13T02:37:46.110Z,9.68
2018-11-13T02:38:46.108Z,9.59
2018-11-13T02:39:46.116Z,9.55
2018-11-13T02:40:46.362Z,9.5
2018-11-13T02:41:46.115Z,9.54
2018-11-13T02:42:46.383Z,9.44
2018-11-13T02:43:46.119Z,9.54
2018-11-13T02:44:46.368Z,9.46
2018-11-13T02:45:46.372Z,9.5
2018-11-13T02:46:46.115Z,9.5
2018-11-13T02:47:46.431Z,9.41
2018-11-13T02:48:46.378Z,9.37
2018-11-13T02:49:46.379Z,9.54
2018-11-13T02:50:46.396Z,9.41
2018-11-13T02:51:46.126Z,9.5
2018-11-13T02:52:46.374Z,9.48
2018-11-13T02:53:46.140Z,9.44
2018-11-13T02:54:46.389Z,9.39
2018-11-13T02:55:46.135Z,9.5
2018-11-13T02:56:46.408Z,9.39
2018-11-13T02:57:46.140Z,9.41
2018-11-13T02:58:46.388Z,9.37
2018-11-13T02:59:46.418Z,9.32
2018-11-13T03:00:46.142Z,9.32
2018-11-13T03:01:46.399Z,9.32
2018-11-13T03:02:46.196Z,9.26
2018-11-13T03:03:46.398Z,9.23
2018-11-13T03:04:46.409Z,9.26
2018-11-13T03:05:46.402Z,9.32
2018-11-13T03:06:46.135Z,9.31
2018-11-13T03:07:46.431Z,9.22
2018-11-13T03:08:46.424Z,9.25
2018-11-13T03:09:46.410Z,9.31
2018-11-13T03:10:46.408Z,9.19
2018-11-13T03:11:46.450Z,9.22
2018-11-13T03:12:46.512Z,9.21
2018-11-13T03:13:46.726Z,9.23
2018-11-13T03:14:46.419Z,9.19
2018-11-13T03:15:46.413Z,9.14
2018-11-13T03:16:46.435Z,9.19
2018-11-13T03:17:46.486Z,9.25
2018-11-13T03:18:46.424Z,9.18
2018-11-13T03:19:46.424Z,9.06
2018-11-13T03:20:46.171Z,9.14
2018-11-13T03:21:46.423Z,9.02
2018-11-13T03:22:46.437Z,9
2018-11-13T03:23:46.424Z,9.1
2018-11-13T03:24:46.433Z,9.13
2018-11-13T03:25:46.509Z,9.11
2018-11-13T03:26:46.436Z,9.11
2018-11-13T03:27:46.439Z,9.08
2018-11-13T03:28:46.181Z,8.99
2018-11-13T03:29:46.187Z,9
2018-11-13T03:30:46.434Z,8.81
2018-11-13T03:31:46.445Z,8.85
2018-11-13T03:32:46.526Z,8.92
2018-11-13T03:33:46.438Z,8.79
2018-11-13T03:34:46.187Z,8.79
2018-11-13T03:35:46.453Z,8.91
2018-11-13T03:36:46.187Z,8.82
2018-11-13T03:37:46.469Z,8.84
2018-11-13T03:38:46.443Z,8.91
2018-11-13T03:39:46.195Z,8.87
2018-11-13T03:40:46.192Z,8.91
2018-11-13T03:41:46.450Z,8.81
2018-11-13T03:42:46.534Z,8.81
2018-11-13T03:43:46.462Z,8.82
2018-11-13T03:44:46.187Z,8.85
2018-11-13T03:45:46.199Z,8.85
2018-11-13T03:46:46.210Z,8.84
2018-11-13T03:47:46.240Z,8.81
2018-11-13T03:48:46.451Z,8.73
2018-11-13T03:49:46.461Z,8.79
2018-11-13T03:50:46.471Z,8.82
2018-11-13T03:51:46.211Z,8.81
2018-11-13T03:52:46.231Z,8.85
2018-11-13T03:53:46.193Z,8.73
2018-11-13T03:54:46.203Z,8.85
2018-11-13T03:55:46.460Z,8.76
2018-11-13T03:56:46.212Z,8.79
2018-11-13T03:57:46.526Z,8.71
2018-11-13T03:58:46.473Z,8.71
2018-11-13T03:59:46.482Z,8.67
2018-11-13T04:00:46.470Z,8.69
2018-11-13T04:01:46.498Z,8.69
2018-11-13T04:02:46.524Z,8.76
2018-11-13T04:03:46.477Z,8.73
2018-11-13T04:04:46.486Z,8.71
2018-11-13T04:05:45.966Z,8.71
2018-11-13T04:06:46.471Z,8.67
2018-11-13T04:07:46.474Z,8.67
2018-11-13T04:08:46.220Z,8.69
2018-11-13T04:09:46.229Z,8.6
2018-11-13T04:10:46.478Z,8.66
2018-11-13T04:11:46.228Z,8.67
2018-11-13T04:12:46.223Z,8.67
2018-11-13T04:13:46.529Z,8.6
2018-11-13T04:14:46.489Z,8.69
2018-11-13T04:15:46.483Z,8.58
2018-11-13T04:16:46.502Z,8.6
2018-11-13T04:17:46.538Z,8.66
2018-11-13T04:18:46.488Z,8.52
2018-11-13T04:19:46.502Z,8.53
2018-11-13T04:20:46.240Z,8.52
2018-11-13T04:21:46.237Z,8.48
2018-11-13T04:22:46.245Z,8.49
2018-11-13T04:23:46.695Z,8.51
2018-11-13T04:24:46.243Z,8.52
2018-11-13T04:25:46.514Z,8.48
2018-11-13T04:26:46.511Z,8.36
2018-11-13T04:27:46.258Z,8.42
2018-11-13T04:28:46.246Z,8.38
2018-11-13T04:29:46.500Z,8.36
2018-11-13T04:30:46.964Z,8.42
2018-11-13T04:31:46.251Z,8.42
2018-11-13T04:32:46.337Z,8.34
2018-11-13T04:33:46.498Z,8.34
2018-11-13T04:34:46.528Z,8.27
2018-11-13T04:35:46.254Z,8.36
2018-11-13T04:36:46.246Z,8.28
2018-11-13T04:37:46.497Z,8.3
2018-11-13T04:38:46.249Z,8.33
2018-11-13T04:39:46.500Z,8.34
2018-11-13T04:40:46.519Z,8.3
2018-11-13T04:41:46.519Z,8.31
2018-11-13T04:42:46.516Z,8.31
2018-11-13T04:43:46.260Z,8.27
2018-11-13T04:44:46.256Z,8.34
2018-11-13T04:45:46.261Z,8.27
2018-11-13T04:46:46.266Z,8.23
2018-11-13T04:47:46.314Z,8.24
2018-11-13T04:48:46.517Z,8.2
2018-11-13T04:49:46.527Z,8.19
2018-11-13T04:50:46.523Z,8.15
2018-11-13T04:51:47.001Z,8.16
2018-11-13T04:52:46.017Z,8.12
2018-11-13T04:53:46.277Z,8.09
2018-11-13T04:54:46.525Z,8.13
2018-11-13T04:55:46.273Z,8.1
2018-11-13T04:56:46.527Z,8.23
2018-11-13T04:57:46.523Z,8.1
2018-11-13T04:58:46.281Z,8.13
2018-11-13T04:59:46.516Z,8.2
2018-11-13T05:00:46.521Z,8.15
2018-11-13T05:01:46.268Z,8.2
2018-11-13T05:02:46.953Z,8.13
2018-11-13T05:03:46.266Z,8.16
2018-11-13T05:04:46.519Z,8.2
2018-11-13T05:05:46.539Z,8.2
2018-11-13T05:06:46.520Z,8.15
2018-11-13T05:07:46.522Z,8.15
2018-11-13T05:08:46.521Z,8.18
2018-11-13T05:09:46.533Z,8.18
2018-11-13T05:10:46.280Z,8.13
2018-11-13T05:11:46.411Z,8.24
2018-11-13T05:12:46.536Z,8.13
2018-11-13T05:13:46.534Z,8.19
2018-11-13T05:14:46.290Z,8.1
2018-11-13T05:15:46.532Z,8.13
2018-11-13T05:16:46.282Z,8.18
2018-11-13T05:17:46.599Z,8.12
2018-11-13T05:18:46.293Z,8.15
2018-11-13T05:19:46.540Z,8.13
2018-11-13T05:20:46.544Z,8.15
2018-11-13T05:21:46.553Z,8.08
2018-11-13T05:22:46.292Z,8.05
2018-11-13T05:23:46.541Z,8.1
2018-11-13T05:24:46.284Z,8.03
2018-11-13T05:25:46.535Z,8.1
2018-11-13T05:26:46.582Z,8.1
2018-11-13T05:27:46.542Z,8.12
2018-11-13T05:28:46.543Z,8.13
2018-11-13T05:29:46.541Z,8.09
2018-11-13T05:30:46.053Z,8.13
2018-11-13T05:31:46.568Z,8.1
2018-11-13T05:32:46.358Z,8.12
2018-11-13T05:33:46.543Z,8.03
2018-11-13T05:34:46.291Z,8
2018-11-13T05:35:46.550Z,8
2018-11-13T05:36:46.545Z,7.87
2018-11-13T05:37:46.602Z,7.9
2018-11-13T05:38:46.297Z,7.76
2018-11-13T05:39:46.295Z,7.9
2018-11-13T05:40:46.043Z,7.85
2018-11-13T05:41:46.910Z,7.77
2018-11-13T05:42:46.710Z,7.76
2018-11-13T05:43:46.550Z,7.73
2018-11-13T05:44:46.555Z,7.7
2018-11-13T05:45:46.300Z,7.73
2018-11-13T05:46:46.559Z,7.75
2018-11-13T05:47:46.562Z,7.75
2018-11-13T05:48:46.564Z,7.67
2018-11-13T05:49:46.306Z,7.66
2018-11-13T05:50:46.550Z,7.61
2018-11-13T05:51:46.303Z,7.58
2018-11-13T05:52:46.300Z,7.58
2018-11-13T05:53:46.558Z,7.67
2018-11-13T05:54:46.563Z,7.58
2018-11-13T05:55:46.324Z,7.66
2018-11-13T05:56:46.307Z,7.63
2018-11-13T05:57:46.608Z,7.7
2018-11-13T05:58:46.558Z,7.73
2018-11-13T05:59:46.789Z,7.67
2018-11-13T06:00:46.562Z,7.63
2018-11-13T06:01:46.561Z,7.61
2018-11-13T06:02:46.556Z,7.51
2018-11-13T06:03:46.559Z,7.6
2018-11-13T06:04:46.346Z,7.58
2018-11-13T06:05:46.559Z,7.5
2018-11-13T06:06:46.307Z,7.66
2018-11-13T06:07:46.563Z,7.57
2018-11-13T06:08:46.439Z,7.58
2018-11-13T06:09:46.560Z,7.51
2018-11-13T06:10:46.309Z,7.45
2018-11-13T06:11:46.558Z,7.39
2018-11-13T06:12:46.104Z,7.48
2018-11-13T06:13:46.307Z,7.54
2018-11-13T06:14:46.561Z,7.5
2018-11-13T06:15:46.310Z,7.48
2018-11-13T06:16:46.309Z,7.53
2018-11-13T06:17:46.571Z,7.5
2018-11-13T06:18:46.564Z,7.53
2018-11-13T06:19:46.563Z,7.6
2018-11-13T06:20:46.317Z,7.58
2018-11-13T06:21:46.309Z,7.58
2018-11-13T06:22:46.759Z,7.6
2018-11-13T06:23:46.313Z,7.63
2018-11-13T06:24:46.311Z,7.61
2018-11-13T06:25:46.337Z,7.69
2018-11-13T06:26:46.312Z,7.75
2018-11-13T06:27:46.632Z,7.76
2018-11-13T06:28:46.312Z,7.76
2018-11-13T06:29:47.025Z,7.85
2018-11-13T06:30:46.312Z,7.76
2018-11-13T06:31:46.311Z,7.77
2018-11-13T06:32:46.572Z,7.91
2018-11-13T06:33:46.318Z,7.88
2018-11-13T06:34:46.316Z,7.95
2018-11-13T06:35:46.577Z,7.93
2018-11-13T06:36:46.570Z,7.97
2018-11-13T06:37:46.326Z,7.98
2018-11-13T06:38:46.772Z,8.03
2018-11-13T06:39:46.064Z,7.95
2018-11-13T06:40:46.316Z,8.08
2018-11-13T06:41:46.584Z,8.1
2018-11-13T06:42:46.627Z,8.1
2018-11-13T06:43:46.066Z,8.1
2018-11-13T06:44:46.329Z,8.18
2018-11-13T06:45:46.576Z,8.15
2018-11-13T06:46:46.322Z,8.12
2018-11-13T06:47:46.583Z,8.19
2018-11-13T06:48:46.590Z,8.18
2018-11-13T06:49:46.964Z,8.31
2018-11-13T06:50:46.597Z,8.28
2018-11-13T06:51:46.581Z,8.36
2018-11-13T06:52:46.582Z,8.34
2018-11-13T06:53:46.581Z,8.41
2018-11-13T06:54:46.590Z,8.45
2018-11-13T06:55:46.332Z,8.45
2018-11-13T06:56:46.073Z,8.55
2018-11-13T06:57:46.385Z,8.51
2018-11-13T06:58:46.074Z,8.58
2018-11-13T06:59:46.333Z,8.64
2018-11-13T07:00:46.584Z,8.7
2018-11-13T07:01:46.585Z,8.67
2018-11-13T07:02:46.078Z,8.61
2018-11-13T07:03:46.592Z,8.74
2018-11-13T07:04:46.357Z,8.7
2018-11-13T07:05:46.336Z,8.7
2018-11-13T07:06:46.586Z,8.78
2018-11-13T07:07:46.589Z,8.84
2018-11-13T07:08:46.336Z,8.85
2018-11-13T07:09:46.087Z,8.88
2018-11-13T07:10:46.926Z,8.81
2018-11-13T07:11:46.589Z,9
2018-11-13T07:12:46.392Z,8.94
2018-11-13T07:13:46.341Z,8.94
2018-11-13T07:14:46.351Z,8.91
2018-11-13T07:15:46.346Z,9
2018-11-13T07:16:46.348Z,9.08
2018-11-13T07:17:46.353Z,9.11
2018-11-13T07:18:46.622Z,9.04
2018-11-13T07:19:46.605Z,9.11
2018-11-13T07:20:46.611Z,9.25
2018-11-13T07:21:46.352Z,9.25
2018-11-13T07:22:46.456Z,9.41
2018-11-13T07:23:46.632Z,9.36
2018-11-13T07:24:46.375Z,9.48
2018-11-13T07:25:46.611Z,9.46
2018-11-13T07:26:46.617Z,9.54
2018-11-13T07:27:46.848Z,9.56
2018-11-13T07:28:46.408Z,9.64
2018-11-13T07:29:46.104Z,9.66
2018-11-13T07:30:46.618Z,9.72
2018-11-13T07:31:46.615Z,9.69
2018-11-13T07:32:46.359Z,9.86
2018-11-13T07:33:46.370Z,9.89
2018-11-13T07:34:46.623Z,9.94
2018-11-13T07:35:46.623Z,10.09
2018-11-13T07:36:46.622Z,10.05
2018-11-13T07:37:46.619Z,10.05
2018-11-13T07:38:46.634Z,10.05
2018-11-13T07:39:46.381Z,10.16
2018-11-13T07:40:46.402Z,10.22
2018-11-13T07:41:46.626Z,10.25
2018-11-13T07:42:46.429Z,10.31
2018-11-13T07:43:46.375Z,10.31
2018-11-13T07:44:46.635Z,10.37
2018-11-13T07:45:46.379Z,10.42
2018-11-13T07:46:46.538Z,10.42
2018-11-13T07:47:47.530Z,10.51
2018-11-13T07:48:46.654Z,10.59
2018-11-13T07:49:46.401Z,10.59
2018-11-13T07:50:46.657Z,10.49
2018-11-13T07:51:46.658Z,10.56
2018-11-13T07:52:46.153Z,10.61
2018-11-13T07:53:46.804Z,10.71
2018-11-13T07:54:46.677Z,10.71
2018-11-13T07:55:46.667Z,10.78
2018-11-13T07:56:46.417Z,10.82
2018-11-13T07:57:46.723Z,10.82
2018-11-13T07:58:46.680Z,10.82
2018-11-13T07:59:46.677Z,10.94
2018-11-13T08:00:46.683Z,11.02
2018-11-13T08:01:46.684Z,11.05
2018-11-13T08:02:46.688Z,11.12
2018-11-13T08:03:46.594Z,11.11
2018-11-13T08:04:46.700Z,11.27
2018-11-13T08:05:46.268Z,11.4
2018-11-13T08:06:47.036Z,11.43
2018-11-13T08:07:46.802Z,11.5
2018-11-13T08:08:46.699Z,11.5
2018-11-13T08:09:46.704Z,11.62
2018-11-13T08:10:46.710Z,11.68
2018-11-13T08:11:46.711Z,11.72
2018-11-13T08:12:47.130Z,11.87
2018-11-13T08:13:46.765Z,11.87
2018-11-13T08:14:46.725Z,11.97
2018-11-13T08:15:46.585Z,12.07
2018-11-13T08:16:46.488Z,12.18
2018-11-13T08:17:46.729Z,12.28
2018-11-13T08:18:46.235Z,12.29
2018-11-13T08:19:46.736Z,12.43
2018-11-13T08:20:46.492Z,12.53
2018-11-13T08:21:46.246Z,12.55
2018-11-13T08:22:46.841Z,12.61
2018-11-13T08:23:46.757Z,12.62
2018-11-13T08:24:46.752Z,12.76
2018-11-13T08:25:46.625Z,12.82
2018-11-13T08:26:46.766Z,12.87
2018-11-13T08:27:47.174Z,12.98
2018-11-13T08:28:47.122Z,13.01
2018-11-13T08:29:46.514Z,13.22
2018-11-13T08:30:46.761Z,13.38
2018-11-13T08:31:46.761Z,13.49
2018-11-13T08:32:46.868Z,13.62
2018-11-13T08:33:46.771Z,13.6
2018-11-13T08:34:46.959Z,13.72
2018-11-13T08:35:47.115Z,13.79
2018-11-13T08:36:46.547Z,13.93
2018-11-13T08:37:46.806Z,13.86
2018-11-13T08:38:46.816Z,13.97
2018-11-13T08:39:46.558Z,13.99
2018-11-13T08:40:46.825Z,14.04
2018-11-13T08:41:46.824Z,14.07
2018-11-13T08:42:46.575Z,14.05
2018-11-13T08:43:46.345Z,14.2
2018-11-13T08:44:46.832Z,14.15
2018-11-13T08:45:46.833Z,14.22
2018-11-13T08:46:46.843Z,14.22
2018-11-13T08:47:46.899Z,14.3
2018-11-13T08:48:46.605Z,14.3
2018-11-13T08:49:46.604Z,14.3
2018-11-13T08:50:46.930Z,14.41
2018-11-13T08:51:46.865Z,14.5
2018-11-13T08:52:46.873Z,14.54
2018-11-13T08:53:46.875Z,14.68
2018-11-13T08:54:46.885Z,14.79
2018-11-13T08:55:46.631Z,14.82
2018-11-13T08:56:46.631Z,14.89
2018-11-13T08:57:46.642Z,14.94
2018-11-13T08:58:47.007Z,14.96
2018-11-13T08:59:47.350Z,14.96
2018-11-13T09:00:46.961Z,14.92
2018-11-13T09:01:46.937Z,14.88
2018-11-13T09:02:47.056Z,14.82
2018-11-13T09:03:46.936Z,14.88
2018-11-13T09:04:46.995Z,14.86
2018-11-13T09:05:46.937Z,14.91
2018-11-13T09:06:46.952Z,14.88
2018-11-13T09:07:46.948Z,15.03
2018-11-13T09:08:46.970Z,15.14
2018-11-13T09:09:46.960Z,15.14
2018-11-13T09:10:46.716Z,15.22
2018-11-13T09:11:46.951Z,15.25
2018-11-13T09:12:46.726Z,15.24
2018-11-13T09:13:46.986Z,15.29
2018-11-13T09:14:46.734Z,15.35
2018-11-13T09:15:46.742Z,15.37
2018-11-13T09:16:46.995Z,15.51
2018-11-13T09:17:46.549Z,15.58
2018-11-13T09:18:46.814Z,15.62
2018-11-13T09:19:47.159Z,15.68
2018-11-13T09:20:47.027Z,15.67
2018-11-13T09:21:46.898Z,15.62
2018-11-13T09:22:46.868Z,15.62
2018-11-13T09:23:46.798Z,15.64
2018-11-13T09:24:46.801Z,15.65
2018-11-13T09:25:47.051Z,15.77
2018-11-13T09:26:47.059Z,15.73
2018-11-13T09:27:46.811Z,15.72
2018-11-13T09:28:46.821Z,15.75
2018-11-13T09:29:47.321Z,15.83
2018-11-13T09:30:47.795Z,15.9
2018-11-13T09:31:46.999Z,15.97
2018-11-13T09:32:46.918Z,16.13
2018-11-13T09:33:47.200Z,16.26
2018-11-13T09:34:47.110Z,16.36
2018-11-13T09:35:46.630Z,16.51
2018-11-13T09:36:47.123Z,16.66
2018-11-13T09:37:47.137Z,16.79
2018-11-13T09:38:47.140Z,16.81
2018-11-13T09:39:46.900Z,16.66
2018-11-13T09:40:46.639Z,16.65
2018-11-13T09:41:47.157Z,16.81
2018-11-13T09:42:47.172Z,16.74
2018-11-13T09:43:46.919Z,16.84
2018-11-13T09:44:47.404Z,16.84
2018-11-13T09:45:47.024Z,16.76
2018-11-13T09:46:46.936Z,16.72
2018-11-13T09:47:47.664Z,16.72
2018-11-13T09:48:47.270Z,16.66
2018-11-13T09:49:46.953Z,16.65
2018-11-13T09:50:46.803Z,16.65
2018-11-13T09:51:47.310Z,16.65
2018-11-13T09:52:46.981Z,16.57
2018-11-13T09:53:47.328Z,16.71
2018-11-13T09:54:47.263Z,16.66
2018-11-13T09:55:46.998Z,16.68
2018-11-13T09:56:47.282Z,16.75
2018-11-13T09:57:47.266Z,16.83
2018-11-13T09:58:47.094Z,16.75
2018-11-13T09:59:47.087Z,17.05
2018-11-13T10:00:48.249Z,17.3
2018-11-13T10:01:49.453Z,17.31
2018-11-13T10:02:50.228Z,17.27
2018-11-13T10:03:48.941Z,17.26
2018-11-13T10:04:50.799Z,17.11
2018-11-13T10:05:48.008Z,17.02
2018-11-13T10:06:47.411Z,17.02
2018-11-13T10:07:47.093Z,16.97
2018-11-13T10:08:47.086Z,16.76
2018-11-13T10:09:47.104Z,16.64
2018-11-13T10:10:47.765Z,16.6
2018-11-13T10:11:46.860Z,16.66
2018-11-13T10:12:47.389Z,16.64
2018-11-13T10:13:47.390Z,16.56
2018-11-13T10:14:47.383Z,16.68
2018-11-13T10:15:47.155Z,16.71
2018-11-13T10:16:47.395Z,16.79
2018-11-13T10:17:47.816Z,16.74
2018-11-13T10:18:47.432Z,16.65
2018-11-13T10:19:47.442Z,16.54
2018-11-13T10:20:47.190Z,16.47
2018-11-13T10:21:47.195Z,16.36
2018-11-13T10:22:47.529Z,16.38
2018-11-13T10:23:47.473Z,16.17
2018-11-13T10:24:47.219Z,16.1
2018-11-13T10:25:47.485Z,15.84
2018-11-13T10:26:47.568Z,15.8
2018-11-13T10:27:47.789Z,15.8
2018-11-13T10:28:47.508Z,15.83
2018-11-13T10:29:47.571Z,15.9
2018-11-13T10:30:47.015Z,15.91
2018-11-13T10:31:47.541Z,15.94
2018-11-13T10:32:47.292Z,15.97
2018-11-13T10:33:47.561Z,16.09
2018-11-13T10:34:47.553Z,16.05
2018-11-13T10:35:47.052Z,16.23
2018-11-13T10:36:47.614Z,16.38
2018-11-13T10:37:47.633Z,16.56
2018-11-13T10:38:47.073Z,16.68
2018-11-13T10:39:47.375Z,16.66
2018-11-13T10:40:48.201Z,16.61
2018-11-13T10:41:47.347Z,16.78
2018-11-13T10:42:47.613Z,16.86
2018-11-13T10:43:47.620Z,16.87
2018-11-13T10:44:47.630Z,16.89
2018-11-13T10:45:47.378Z,16.76
2018-11-13T10:46:47.398Z,16.76
2018-11-13T10:47:47.656Z,16.75
2018-11-13T10:48:47.726Z,16.76
2018-11-13T10:49:47.683Z,16.75
2018-11-13T10:50:47.675Z,16.66
2018-11-13T10:51:47.679Z,16.65
2018-11-13T10:52:47.556Z,16.68
2018-11-13T10:53:47.475Z,16.71
2018-11-13T10:54:47.710Z,16.66
2018-11-13T10:55:47.726Z,16.66
2018-11-13T10:56:47.462Z,16.68
2018-11-13T10:57:47.475Z,16.68
2018-11-13T10:58:47.745Z,16.65
2018-11-13T10:59:47.734Z,16.61
2018-11-13T11:00:47.747Z,16.42
2018-11-13T11:01:47.748Z,16.49
2018-11-13T11:02:47.641Z,16.26
2018-11-13T11:03:47.786Z,16.09
2018-11-13T11:04:47.529Z,16.09
2018-11-13T11:05:47.788Z,15.97
2018-11-13T11:06:47.533Z,16.02
2018-11-13T11:07:47.338Z,15.98
2018-11-13T11:08:47.810Z,15.79
2018-11-13T11:09:47.819Z,15.75
2018-11-13T11:10:47.836Z,15.54
2018-11-13T11:11:47.831Z,15.54
2018-11-13T11:12:47.988Z,15.46
2018-11-13T11:13:48.516Z,15.51
2018-11-13T11:14:47.590Z,15.49
2018-11-13T11:15:47.597Z,15.37
2018-11-13T11:16:47.600Z,15.25
2018-11-13T11:17:47.599Z,15.03
2018-11-13T11:18:47.913Z,15
2018-11-13T11:19:47.887Z,14.89
2018-11-13T11:20:47.619Z,14.88
2018-11-13T11:21:47.884Z,14.82
2018-11-13T11:22:47.848Z,14.68
2018-11-13T11:23:48.319Z,14.6
2018-11-13T11:24:47.891Z,14.62
2018-11-13T11:25:47.897Z,14.72
2018-11-13T11:26:47.910Z,14.58
2018-11-13T11:27:48.073Z,14.63
2018-11-13T11:28:47.934Z,14.48
2018-11-13T11:29:47.923Z,14.5
2018-11-13T11:30:48.028Z,14.5
2018-11-13T11:31:47.939Z,14.26
2018-11-13T11:32:47.948Z,14.2
2018-11-13T11:33:47.948Z,14.23
2018-11-13T11:34:47.957Z,14.17
2018-11-13T11:35:47.967Z,14
2018-11-13T11:36:47.458Z,13.89
2018-11-13T11:37:47.762Z,13.93
2018-11-13T11:38:47.966Z,13.9
2018-11-13T11:39:48.114Z,13.97
2018-11-13T11:40:47.725Z,13.87
2018-11-13T11:41:47.481Z,13.85
2018-11-13T11:42:47.995Z,13.87
2018-11-13T11:43:47.745Z,13.85
2018-11-13T11:44:48.015Z,13.96
2018-11-13T11:45:48.259Z,14
2018-11-13T11:46:47.785Z,14.07
2018-11-13T11:47:47.765Z,14.07
2018-11-13T11:48:48.075Z,14.03
2018-11-13T11:49:47.774Z,13.87
2018-11-13T11:50:47.776Z,13.92
2018-11-13T11:51:48.040Z,13.85
2018-11-13T11:52:48.089Z,13.85
2018-11-13T11:53:48.308Z,13.68
2018-11-13T11:54:47.903Z,13.68
2018-11-13T11:55:48.076Z,13.72
2018-11-13T11:56:48.060Z,13.68
2018-11-13T11:57:48.100Z,13.72
2018-11-13T11:58:47.812Z,13.63
2018-11-13T11:59:48.068Z,13.75
2018-11-13T12:00:48.563Z,13.7
2018-11-13T12:01:48.085Z,13.77
2018-11-13T12:02:48.084Z,13.89
2018-11-13T12:03:48.084Z,13.89
2018-11-13T12:04:47.879Z,13.92
2018-11-13T12:05:48.089Z,13.87
2018-11-13T12:06:48.098Z,13.87
2018-11-13T12:07:48.150Z,13.89
2018-11-13T12:08:47.854Z,13.83
2018-11-13T12:09:48.117Z,13.83
2018-11-13T12:10:47.870Z,13.71
2018-11-13T12:11:48.125Z,13.79
2018-11-13T12:12:47.873Z,13.72
2018-11-13T12:13:47.891Z,13.74
2018-11-13T12:14:48.135Z,13.68
2018-11-13T12:15:48.148Z,13.67
2018-11-13T12:16:47.899Z,13.67
2018-11-13T12:17:47.896Z,13.62
2018-11-13T12:18:47.978Z,13.71
2018-11-13T12:19:47.907Z,13.7
2018-11-13T12:20:48.163Z,13.7
2018-11-13T12:21:48.172Z,13.7
2018-11-13T12:22:48.017Z,13.77
2018-11-13T12:23:48.184Z,13.77
2018-11-13T12:24:48.192Z,13.81
2018-11-13T12:25:48.365Z,13.72
2018-11-13T12:26:48.224Z,13.68
2018-11-13T12:27:48.198Z,13.67
2018-11-13T12:28:48.211Z,13.7
2018-11-13T12:29:48.230Z,13.63
2018-11-13T12:30:48.221Z,13.72
2018-11-13T12:31:48.219Z,13.62
2018-11-13T12:32:48.030Z,13.67
2018-11-13T12:33:47.971Z,13.62
2018-11-13T12:34:48.628Z,13.71
2018-11-13T12:35:48.237Z,13.6
2018-11-13T12:36:47.728Z,13.67
2018-11-13T12:37:48.297Z,13.63
2018-11-13T12:38:48.297Z,13.7
2018-11-13T12:39:47.998Z,13.57
2018-11-13T12:40:48.717Z,13.71
2018-11-13T12:41:48.256Z,13.63
2018-11-13T12:42:48.964Z,13.59
2018-11-13T12:43:47.762Z,13.65
2018-11-13T12:44:48.299Z,13.71
2018-11-13T12:45:48.306Z,13.67
2018-11-13T12:46:48.281Z,13.65
2018-11-13T12:47:47.779Z,13.59
2018-11-13T12:48:48.204Z,13.59
2018-11-13T12:49:48.302Z,13.7
2018-11-13T12:50:48.063Z,13.63
2018-11-13T12:51:48.047Z,13.68
2018-11-13T12:52:48.404Z,13.68
2018-11-13T12:53:48.313Z,13.79
2018-11-13T12:54:48.065Z,13.72
2018-11-13T12:55:48.382Z,13.86
2018-11-13T12:56:48.081Z,13.7
2018-11-13T12:57:48.077Z,13.72
2018-11-13T12:58:48.330Z,13.72
2018-11-13T12:59:48.086Z,13.78
2018-11-13T13:00:48.087Z,13.67
2018-11-13T13:01:48.346Z,13.77
2018-11-13T13:02:48.348Z,13.67
2018-11-13T13:03:48.108Z,13.74
2018-11-13T13:04:48.109Z,13.72
2018-11-13T13:05:48.367Z,13.63
2018-11-13T13:06:48.366Z,13.62
2018-11-13T13:07:48.653Z,13.57
2018-11-13T13:08:48.833Z,13.57